createdAt,value
2018-08-13T00:00:30.341Z,99.74
2018-08-13T00:01:30.327Z,99.35
2018-08-13T00:02:30.315Z,98.97
2018-08-13T00:03:30.295Z,99.35
2018-08-13T00:04:30.279Z,99.16
2018-08-13T00:05:30.264Z,98.87
2018-08-13T00:06:30.250Z,99.55
2018-08-13T00:07:30.236Z,99.16
2018-08-13T00:08:30.217Z,99.11
2018-08-13T00:09:30.202Z,99.21
2018-08-13T00:10:30.187Z,99.50
2018-08-13T00:11:30.171Z,99.64
2018-08-13T00:12:30.155Z,99.50
2018-08-13T00:13:30.141Z,99.40
2018-08-13T00:14:30.127Z,99.16
2018-08-13T00:15:30.109Z,99.30
2018-08-13T00:16:30.095Z,99.02
2018-08-13T00:17:30.093Z,99.02
2018-08-13T00:18:30.061Z,99.30
2018-08-13T00:19:30.047Z,99.79
2018-08-13T00:20:30.032Z,99.30
2018-08-13T00:21:30.016Z,98.92
2018-08-13T00:22:30.000Z,99.16
2018-08-13T00:23:29.985Z,99.07
2018-08-13T00:24:29.969Z,98.97
2018-08-13T00:25:29.957Z,99.02
2018-08-13T00:26:29.939Z,99.11
2018-08-13T00:27:29.924Z,99.02
2018-08-13T00:28:29.908Z,98.72
2018-08-13T00:29:29.892Z,99.02
2018-08-13T00:30:29.876Z,98.82
2018-08-13T00:31:29.864Z,98.82
2018-08-13T00:32:31.347Z,99.59
2018-08-13T00:33:29.828Z,98.54
2018-08-13T00:34:29.812Z,98.92
2018-08-13T00:35:29.797Z,98.72
2018-08-13T00:36:29.782Z,99.02
2018-08-13T00:37:29.767Z,98.82
2018-08-13T00:38:29.749Z,98.92
2018-08-13T00:39:29.734Z,98.63
2018-08-13T00:40:29.719Z,98.72
2018-08-13T00:41:29.703Z,98.92
2018-08-13T00:42:29.688Z,99.21
2018-08-13T00:43:29.677Z,98.82
2018-08-13T00:44:29.656Z,99.11
2018-08-13T00:45:29.641Z,98.58
2018-08-13T00:46:29.624Z,98.49
2018-08-13T00:47:29.609Z,98.87
2018-08-13T00:48:29.593Z,99.11
2018-08-13T00:49:29.578Z,99.06
2018-08-13T00:50:29.562Z,99.02
2018-08-13T00:51:29.547Z,99.30
2018-08-13T00:52:29.534Z,99.06
2018-08-13T00:53:29.516Z,99.02
2018-08-13T00:54:29.500Z,98.77
2018-08-13T00:55:29.485Z,98.97
2018-08-13T00:56:29.468Z,98.77
2018-08-13T00:57:29.453Z,98.77
2018-08-13T00:58:29.436Z,98.87
2018-08-13T00:59:30.922Z,98.49
2018-08-13T01:00:29.405Z,98.39
2018-08-13T01:01:29.392Z,99.02
2018-08-13T01:02:29.373Z,98.19
2018-08-13T01:03:29.358Z,98.49
2018-08-13T01:04:29.344Z,98.77
2018-08-13T01:05:30.078Z,99.06
2018-08-13T01:06:29.311Z,99.06
2018-08-13T01:07:29.297Z,99.35
2018-08-13T01:08:29.280Z,99.06
2018-08-13T01:09:29.264Z,99.26
2018-08-13T01:10:29.247Z,99.06
2018-08-13T01:11:29.232Z,99.06
2018-08-13T01:12:29.217Z,99.06
2018-08-13T01:13:29.205Z,98.97
2018-08-13T01:14:29.185Z,99.06
2018-08-13T01:15:29.171Z,99.16
2018-08-13T01:16:29.155Z,99.06
2018-08-13T01:17:29.139Z,99.26
2018-08-13T01:18:29.122Z,98.97
2018-08-13T01:19:29.108Z,98.87
2018-08-13T01:20:29.092Z,99.35
2018-08-13T01:21:29.076Z,98.77
2018-08-13T01:22:29.059Z,98.87
2018-08-13T01:23:29.043Z,99.16
2018-08-13T01:24:29.032Z,98.87
2018-08-13T01:25:29.015Z,98.87
2018-08-13T01:26:31.248Z,99.06
2018-08-13T01:27:28.982Z,98.97
2018-08-13T01:28:28.964Z,98.97
2018-08-13T01:29:28.950Z,98.87
2018-08-13T01:30:28.934Z,99.16
2018-08-13T01:31:28.917Z,98.97
2018-08-13T01:32:28.901Z,98.77
2018-08-13T01:33:28.886Z,99.06
2018-08-13T01:34:28.869Z,98.97
2018-08-13T01:35:28.855Z,98.97
2018-08-13T01:36:28.838Z,99.35
2018-08-13T01:37:28.825Z,98.10
2018-08-13T01:38:28.810Z,98.29
2018-08-13T01:39:28.791Z,98.87
2018-08-13T01:40:28.776Z,98.29
2018-08-13T01:41:28.760Z,98.58
2018-08-13T01:42:28.744Z,98.39
2018-08-13T01:43:28.727Z,98.68
2018-08-13T01:44:28.713Z,98.58
2018-08-13T01:45:28.696Z,98.77
2018-08-13T01:46:28.682Z,98.58
2018-08-13T01:47:28.668Z,98.87
2018-08-13T01:48:28.650Z,98.87
2018-08-13T01:49:28.633Z,99.06
2018-08-13T01:50:28.616Z,98.97
2018-08-13T01:51:28.600Z,99.26
2018-08-13T01:52:28.589Z,99.06
2018-08-13T01:53:28.570Z,99.16
2018-08-13T01:54:28.553Z,99.26
2018-08-13T01:55:28.537Z,99.35
2018-08-13T01:56:28.522Z,99.35
2018-08-13T01:57:28.507Z,99.26
2018-08-13T01:58:28.492Z,99.06
2018-08-13T01:59:28.473Z,99.35
2018-08-13T02:00:28.458Z,98.97
2018-08-13T02:01:28.587Z,99.06
2018-08-13T02:02:28.426Z,99.21
2018-08-13T02:03:28.410Z,99.01
2018-08-13T02:04:28.394Z,99.30
2018-08-13T02:05:28.379Z,98.82
2018-08-13T02:06:28.362Z,99.01
2018-08-13T02:07:28.348Z,98.92
2018-08-13T02:08:28.331Z,99.21
2018-08-13T02:09:28.315Z,98.82
2018-08-13T02:10:28.298Z,99.11
2018-08-13T02:11:28.285Z,98.92
2018-08-13T02:12:28.267Z,98.82
2018-08-13T02:13:28.251Z,98.63
2018-08-13T02:14:28.234Z,99.01
2018-08-13T02:15:28.223Z,97.28
2018-08-13T02:16:28.204Z,96.99
2018-08-13T02:17:28.187Z,97.57
2018-08-13T02:18:28.170Z,97.47
2018-08-13T02:19:28.156Z,97.38
2018-08-13T02:20:28.139Z,97.76
2018-08-13T02:21:28.123Z,97.57
2018-08-13T02:22:28.106Z,97.57
2018-08-13T02:23:28.090Z,97.67
2018-08-13T02:24:28.076Z,97.28
2018-08-13T02:25:28.062Z,97.28
2018-08-13T02:26:28.047Z,97.33
2018-08-13T02:27:28.028Z,97.62
2018-08-13T02:28:28.011Z,97.19
2018-08-13T02:29:27.994Z,97.62
2018-08-13T02:30:27.978Z,97.24
2018-08-13T02:31:27.963Z,97.24
2018-08-13T02:32:27.947Z,97.24
2018-08-13T02:33:27.931Z,97.47
2018-08-13T02:34:27.915Z,97.09
2018-08-13T02:35:27.898Z,97.19
2018-08-13T02:36:27.882Z,96.99
2018-08-13T02:37:27.865Z,96.99
2018-08-13T02:38:27.849Z,96.99
2018-08-13T02:39:27.833Z,96.94
2018-08-13T02:40:27.817Z,97.38
2018-08-13T02:41:27.801Z,97.04
2018-08-13T02:42:27.789Z,96.70
2018-08-13T02:43:27.770Z,96.80
2018-08-13T02:44:27.755Z,97.19
2018-08-13T02:45:27.738Z,97.19
2018-08-13T02:46:27.720Z,96.99
2018-08-13T02:47:27.705Z,97.47
2018-08-13T02:48:27.689Z,97.76
2018-08-13T02:49:27.672Z,97.19
2018-08-13T02:50:27.669Z,97.28
2018-08-13T02:51:27.639Z,97.28
2018-08-13T02:52:27.624Z,97.28
2018-08-13T02:53:27.609Z,97.57
2018-08-13T02:54:27.592Z,97.28
2018-08-13T02:55:27.577Z,97.71
2018-08-13T02:56:27.559Z,97.14
2018-08-13T02:57:27.543Z,97.42
2018-08-13T02:58:27.527Z,97.14
2018-08-13T02:59:27.510Z,97.14
2018-08-13T03:00:27.495Z,96.85
2018-08-13T03:01:27.478Z,96.94
2018-08-13T03:02:27.461Z,97.14
2018-08-13T03:03:27.445Z,97.33
2018-08-13T03:04:27.445Z,96.56
2018-08-13T03:05:27.414Z,97.33
2018-08-13T03:06:27.397Z,96.94
2018-08-13T03:07:28.131Z,96.94
2018-08-13T03:08:27.364Z,96.08
2018-08-13T03:09:27.349Z,96.61
2018-08-13T03:10:27.331Z,96.47
2018-08-13T03:11:27.315Z,96.22
2018-08-13T03:12:27.309Z,96.13
2018-08-13T03:13:27.284Z,96.22
2018-08-13T03:14:27.266Z,95.65
2018-08-13T03:15:27.250Z,95.55
2018-08-13T03:16:27.233Z,95.36
2018-08-13T03:17:27.220Z,95.17
2018-08-13T03:18:27.200Z,95.17
2018-08-13T03:19:27.183Z,95.55
2018-08-13T03:20:27.168Z,95.55
2018-08-13T03:21:27.151Z,95.45
2018-08-13T03:22:27.134Z,95.65
2018-08-13T03:23:27.117Z,92.76
2018-08-13T03:24:27.107Z,92.09
2018-08-13T03:25:27.087Z,91.28
2018-08-13T03:26:27.068Z,90.94
2018-08-13T03:27:27.050Z,90.55
2018-08-13T03:28:27.034Z,90.65
2018-08-13T03:29:27.019Z,89.78
2018-08-13T03:30:27.001Z,90.17
2018-08-13T03:31:26.984Z,89.59
2018-08-13T03:32:26.974Z,89.26
2018-08-13T03:33:26.962Z,89.21
2018-08-13T03:34:26.935Z,88.63
2018-08-13T03:35:26.917Z,88.92
2018-08-13T03:36:26.901Z,88.63
2018-08-13T03:37:26.883Z,88.24
2018-08-13T03:38:27.617Z,87.09
2018-08-13T03:39:26.851Z,86.99
2018-08-13T03:40:26.833Z,87.19
2018-08-13T03:41:26.817Z,87.67
2018-08-13T03:42:26.799Z,87.57
2018-08-13T03:43:26.783Z,87.48
2018-08-13T03:44:26.766Z,87.48
2018-08-13T03:45:26.751Z,87.67
2018-08-13T03:46:26.736Z,87.19
2018-08-13T03:47:26.717Z,87.76
2018-08-13T03:48:26.701Z,88.06
2018-08-13T03:49:27.438Z,88.44
2018-08-13T03:50:26.666Z,87.96
2018-08-13T03:51:26.649Z,88.63
2018-08-13T03:52:26.632Z,87.96
2018-08-13T03:53:26.615Z,87.96
2018-08-13T03:54:26.598Z,89.11
2018-08-13T03:55:26.581Z,88.48
2018-08-13T03:56:26.564Z,88.57
2018-08-13T03:57:26.548Z,89.54
2018-08-13T03:58:26.531Z,89.73
2018-08-13T03:59:26.513Z,89.54
2018-08-13T04:00:26.497Z,89.06
2018-08-13T04:01:26.481Z,89.44
2018-08-13T04:02:26.463Z,89.06
2018-08-13T04:03:26.447Z,89.25
2018-08-13T04:04:26.433Z,89.06
2018-08-13T04:05:26.413Z,89.54
2018-08-13T04:06:26.398Z,89.54
2018-08-13T04:07:26.429Z,88.96
2018-08-13T04:08:26.363Z,88.67
2018-08-13T04:09:26.347Z,89.25
2018-08-13T04:10:26.331Z,88.96
2018-08-13T04:11:26.312Z,88.67
2018-08-13T04:12:26.297Z,89.73
2018-08-13T04:13:26.283Z,88.67
2018-08-13T04:14:26.263Z,88.87
2018-08-13T04:15:27.749Z,89.44
2018-08-13T04:16:26.230Z,89.25
2018-08-13T04:17:26.215Z,88.48
2018-08-13T04:18:26.197Z,89.25
2018-08-13T04:19:26.209Z,89.25
2018-08-13T04:20:26.166Z,89.73
2018-08-13T04:21:26.147Z,89.25
2018-08-13T04:22:26.130Z,89.44
2018-08-13T04:23:26.114Z,89.25
2018-08-13T04:24:26.098Z,88.67
2018-08-13T04:25:26.081Z,89.25
2018-08-13T04:26:26.065Z,89.44
2018-08-13T04:27:26.048Z,90.12
2018-08-13T04:28:26.039Z,90.02
2018-08-13T04:29:26.017Z,89.64
2018-08-13T04:30:25.998Z,89.73
2018-08-13T04:31:25.983Z,89.64
2018-08-13T04:32:25.969Z,90.41
2018-08-13T04:33:25.950Z,90.41
2018-08-13T04:34:25.934Z,90.02
2018-08-13T04:35:25.916Z,90.69
2018-08-13T04:36:25.905Z,90.50
2018-08-13T04:37:25.884Z,90.59
2018-08-13T04:38:25.867Z,90.12
2018-08-13T04:39:25.853Z,90.50
2018-08-13T04:40:25.836Z,90.50
2018-08-13T04:41:25.818Z,90.69
2018-08-13T04:42:26.552Z,90.31
2018-08-13T04:43:25.785Z,90.21
2018-08-13T04:44:25.770Z,90.50
2018-08-13T04:45:25.756Z,91.36
2018-08-13T04:46:25.737Z,91.27
2018-08-13T04:47:25.720Z,90.98
2018-08-13T04:48:25.703Z,90.89
2018-08-13T04:49:25.687Z,90.79
2018-08-13T04:50:25.670Z,91.27
2018-08-13T04:51:25.654Z,91.27
2018-08-13T04:52:25.638Z,91.27
2018-08-13T04:53:25.624Z,91.17
2018-08-13T04:54:25.605Z,91.17
2018-08-13T04:55:25.589Z,91.36
2018-08-13T04:56:25.572Z,91.27
2018-08-13T04:57:25.560Z,91.80
2018-08-13T04:58:25.543Z,91.22
2018-08-13T04:59:25.524Z,91.31
2018-08-13T05:00:25.550Z,91.03
2018-08-13T05:01:25.493Z,91.31
2018-08-13T05:02:25.474Z,91.99
2018-08-13T05:03:25.458Z,91.13
2018-08-13T05:04:25.452Z,91.07
2018-08-13T05:05:25.425Z,91.17
2018-08-13T05:06:25.408Z,91.17
2018-08-13T05:07:25.475Z,91.65
2018-08-13T05:08:25.376Z,92.13
2018-08-13T05:09:25.361Z,92.22
2018-08-13T05:10:25.343Z,91.65
2018-08-13T05:11:25.329Z,91.94
2018-08-13T05:12:25.312Z,92.03
2018-08-13T05:13:25.297Z,91.27
2018-08-13T05:14:25.280Z,91.84
2018-08-13T05:15:25.264Z,91.27
2018-08-13T05:16:25.249Z,91.07
2018-08-13T05:17:25.233Z,92.13
2018-08-13T05:18:25.216Z,92.03
2018-08-13T05:19:25.201Z,91.07
2018-08-13T05:20:25.184Z,91.07
2018-08-13T05:21:25.168Z,93.48
2018-08-13T05:22:25.150Z,91.41
2018-08-13T05:23:25.135Z,91.31
2018-08-13T05:24:25.119Z,90.44
2018-08-13T05:25:25.104Z,90.83
2018-08-13T05:26:25.088Z,91.21
2018-08-13T05:27:25.072Z,91.02
2018-08-13T05:28:25.055Z,91.31
2018-08-13T05:29:25.039Z,91.36
2018-08-13T05:30:25.070Z,90.97
2018-08-13T05:31:25.008Z,91.16
2018-08-13T05:32:24.991Z,90.78
2018-08-13T05:33:24.976Z,90.78
2018-08-13T05:34:24.961Z,90.88
2018-08-13T05:35:24.943Z,90.97
2018-08-13T05:36:24.928Z,90.10
2018-08-13T05:37:24.913Z,90.58
2018-08-13T05:38:24.898Z,90.39
2018-08-13T05:39:24.882Z,89.62
2018-08-13T05:40:24.867Z,89.47
2018-08-13T05:41:24.850Z,89.09
2018-08-13T05:42:24.833Z,89.67
2018-08-13T05:43:24.817Z,89.18
2018-08-13T05:44:24.805Z,89.37
2018-08-13T05:45:24.786Z,88.51
2018-08-13T05:46:24.770Z,88.75
2018-08-13T05:47:24.754Z,89.90
2018-08-13T05:48:24.739Z,88.45
2018-08-13T05:49:24.724Z,88.45
2018-08-13T05:50:24.707Z,88.45
2018-08-13T05:51:24.692Z,87.78
2018-08-13T05:52:24.677Z,87.44
2018-08-13T05:53:24.661Z,87.05
2018-08-13T05:54:24.645Z,86.76
2018-08-13T05:55:25.380Z,86.76
2018-08-13T05:56:24.615Z,87.73
2018-08-13T05:57:24.600Z,87.53
2018-08-13T05:58:24.582Z,86.96
2018-08-13T05:59:24.567Z,86.13
2018-08-13T06:00:24.551Z,86.03
2018-08-13T06:01:24.538Z,85.74
2018-08-13T06:02:24.520Z,86.13
2018-08-13T06:03:24.506Z,85.84
2018-08-13T06:04:24.493Z,86.32
2018-08-13T06:05:24.477Z,86.32
2018-08-13T06:06:24.459Z,86.13
2018-08-13T06:07:24.445Z,87.00
2018-08-13T06:08:24.429Z,86.71
2018-08-13T06:09:24.420Z,88.10
2018-08-13T06:10:24.402Z,87.58
2018-08-13T06:11:24.575Z,87.67
2018-08-13T06:12:24.368Z,86.61
2018-08-13T06:13:24.354Z,86.90
2018-08-13T06:14:24.337Z,88.06
2018-08-13T06:15:24.323Z,87.58
2018-08-13T06:16:24.307Z,87.77
2018-08-13T06:17:24.294Z,87.67
2018-08-13T06:18:24.284Z,87.96
2018-08-13T06:19:24.263Z,87.67
2018-08-13T06:20:24.249Z,88.15
2018-08-13T06:21:24.233Z,89.12
2018-08-13T06:22:24.260Z,88.54
2018-08-13T06:23:24.202Z,89.22
2018-08-13T06:24:24.336Z,88.35
2018-08-13T06:25:24.172Z,88.35
2018-08-13T06:26:24.157Z,88.45
2018-08-13T06:27:24.142Z,89.22
2018-08-13T06:28:24.128Z,88.73
2018-08-13T06:29:24.113Z,89.12
2018-08-13T06:30:24.103Z,89.03
2018-08-13T06:31:24.082Z,89.22
2018-08-13T06:32:24.068Z,89.03
2018-08-13T06:33:24.054Z,89.22
2018-08-13T06:34:24.038Z,89.12
2018-08-13T06:35:24.022Z,89.03
2018-08-13T06:36:24.007Z,89.12
2018-08-13T06:37:23.994Z,89.70
2018-08-13T06:38:23.977Z,89.22
2018-08-13T06:39:23.962Z,88.87
2018-08-13T06:40:23.948Z,88.29
2018-08-13T06:41:23.934Z,89.36
2018-08-13T06:42:23.918Z,88.49
2018-08-13T06:43:25.406Z,88.39
2018-08-13T06:44:23.889Z,88.06
2018-08-13T06:45:23.874Z,88.64
2018-08-13T06:46:23.859Z,88.87
2018-08-13T06:47:23.843Z,89.03
2018-08-13T06:48:23.829Z,89.03
2018-08-13T06:49:26.817Z,89.03
2018-08-13T06:50:23.803Z,89.22
2018-08-13T06:51:23.784Z,89.03
2018-08-13T06:52:23.769Z,89.22
2018-08-13T06:53:23.756Z,89.12
2018-08-13T06:54:23.740Z,89.51
2018-08-13T06:55:23.725Z,89.41
2018-08-13T06:56:23.710Z,89.41
2018-08-13T06:57:23.698Z,89.17
2018-08-13T06:58:23.681Z,88.89
2018-08-13T06:59:23.665Z,89.07
2018-08-13T07:00:23.650Z,89.07
2018-08-13T07:01:23.635Z,88.40
2018-08-13T07:02:23.619Z,87.63
2018-08-13T07:03:23.603Z,87.44
2018-08-13T07:04:23.589Z,86.86
2018-08-13T07:05:23.572Z,86.76
2018-08-13T07:06:27.310Z,86.66
2018-08-13T07:07:23.542Z,86.08
2018-08-13T07:08:23.526Z,85.94
2018-08-13T07:09:23.512Z,85.80
2018-08-13T07:10:23.496Z,86.33
2018-08-13T07:11:23.480Z,86.33
2018-08-13T07:12:28.720Z,85.66
2018-08-13T07:13:23.449Z,86.04
2018-08-13T07:14:23.433Z,86.14
2018-08-13T07:15:23.418Z,86.43
2018-08-13T07:16:23.402Z,86.18
2018-08-13T07:17:23.388Z,85.66
2018-08-13T07:18:23.372Z,86.14
2018-08-13T07:19:23.356Z,86.72
2018-08-13T07:20:23.341Z,86.52
2018-08-13T07:21:23.326Z,86.62
2018-08-13T07:22:23.349Z,87.01
2018-08-13T07:23:23.294Z,86.24
2018-08-13T07:24:23.280Z,87.30
2018-08-13T07:25:23.263Z,86.72
2018-08-13T07:26:23.248Z,86.72
2018-08-13T07:27:23.232Z,86.28
2018-08-13T07:28:23.217Z,86.86
2018-08-13T07:29:23.201Z,86.52
2018-08-13T07:30:23.185Z,86.82
2018-08-13T07:31:23.170Z,86.66
2018-08-13T07:32:23.155Z,86.66
2018-08-13T07:33:23.183Z,86.76
2018-08-13T07:34:23.124Z,85.89
2018-08-13T07:35:23.110Z,86.18
2018-08-13T07:36:23.093Z,85.99
2018-08-13T07:37:23.078Z,85.74
2018-08-13T07:38:23.062Z,85.64
2018-08-13T07:39:23.141Z,84.91
2018-08-13T07:40:23.033Z,85.01
2018-08-13T07:41:23.018Z,83.61
2018-08-13T07:42:23.003Z,83.95
2018-08-13T07:43:22.987Z,83.56
2018-08-13T07:44:22.973Z,85.36
2018-08-13T07:45:23.710Z,85.11
2018-08-13T07:46:22.952Z,84.38
2018-08-13T07:47:22.928Z,83.75
2018-08-13T07:48:22.914Z,83.85
2018-08-13T07:49:22.902Z,83.81
2018-08-13T07:50:22.886Z,84.82
2018-08-13T07:51:22.870Z,83.66
2018-08-13T07:52:22.857Z,84.14
2018-08-13T07:53:22.842Z,83.52
2018-08-13T07:54:22.826Z,84.91
2018-08-13T07:55:22.813Z,84.82
2018-08-13T07:56:25.052Z,83.89
2018-08-13T07:57:22.785Z,84.47
2018-08-13T07:58:22.771Z,83.27
2018-08-13T07:59:22.760Z,84.53
2018-08-13T08:00:22.742Z,84.72
2018-08-13T08:01:22.728Z,84.53
2018-08-13T08:02:23.464Z,82.98
2018-08-13T08:03:22.699Z,83.56
2018-08-13T08:04:22.685Z,83.75
2018-08-13T08:05:22.672Z,83.85
2018-08-13T08:06:22.657Z,83.27
2018-08-13T08:07:22.643Z,82.73
2018-08-13T08:08:22.630Z,83.12
2018-08-13T08:09:22.616Z,82.79
2018-08-13T08:10:22.603Z,84.24
2018-08-13T08:11:22.588Z,83.08
2018-08-13T08:12:22.575Z,83.08
2018-08-13T08:13:22.561Z,82.93
2018-08-13T08:14:22.548Z,83.03
2018-08-13T08:15:22.533Z,83.41
2018-08-13T08:16:22.520Z,83.12
2018-08-13T08:17:22.505Z,82.73
2018-08-13T08:18:22.491Z,82.79
2018-08-13T08:19:22.479Z,83.75
2018-08-13T08:20:22.464Z,83.85
2018-08-13T08:21:22.463Z,83.70
2018-08-13T08:22:22.436Z,84.38
2018-08-13T08:23:22.422Z,82.10
2018-08-13T08:24:22.409Z,82.00
2018-08-13T08:25:22.397Z,82.39
2018-08-13T08:26:22.383Z,82.23
2018-08-13T08:27:22.370Z,81.27
2018-08-13T08:28:22.360Z,81.46
2018-08-13T08:29:22.347Z,81.04
2018-08-13T08:30:22.331Z,81.95
2018-08-13T08:31:22.317Z,80.84
2018-08-13T08:32:22.303Z,81.07
2018-08-13T08:33:22.289Z,81.17
2018-08-13T08:34:22.275Z,80.84
2018-08-13T08:35:22.264Z,81.46
2018-08-13T08:36:22.251Z,81.12
2018-08-13T08:37:22.237Z,79.82
2018-08-13T08:38:22.224Z,80.40
2018-08-13T08:39:22.211Z,80.65
2018-08-13T08:40:22.225Z,80.94
2018-08-13T08:41:22.186Z,81.04
2018-08-13T08:42:22.173Z,81.07
2018-08-13T08:43:22.161Z,80.30
2018-08-13T08:44:22.148Z,80.34
2018-08-13T08:45:22.135Z,79.50
2018-08-13T08:46:22.121Z,78.59
2018-08-13T08:47:22.109Z,79.27
2018-08-13T08:48:22.097Z,79.91
2018-08-13T08:49:22.084Z,80.15
2018-08-13T08:50:22.071Z,79.95
2018-08-13T08:51:22.058Z,80.34
2018-08-13T08:52:22.046Z,79.12
2018-08-13T08:53:22.034Z,78.74
2018-08-13T08:54:22.022Z,79.70
2018-08-13T08:55:25.012Z,78.92
2018-08-13T08:56:21.997Z,79.47
2018-08-13T08:57:21.983Z,79.41
2018-08-13T08:58:21.970Z,79.57
2018-08-13T08:59:21.957Z,80.34
2018-08-13T09:00:21.946Z,79.95
2018-08-13T09:01:22.684Z,79.91
2018-08-13T09:02:21.921Z,79.95
2018-08-13T09:03:21.909Z,79.91
2018-08-13T09:04:21.896Z,80.59
2018-08-13T09:05:21.884Z,80.98
2018-08-13T09:06:21.872Z,80.74
2018-08-13T09:07:21.858Z,82.10
2018-08-13T09:08:21.847Z,82.04
2018-08-13T09:09:21.834Z,82.14
2018-08-13T09:10:21.820Z,81.46
2018-08-13T09:11:21.810Z,81.04
2018-08-13T09:12:21.797Z,82.14
2018-08-13T09:13:21.785Z,81.02
2018-08-13T09:14:21.771Z,80.40
2018-08-13T09:15:21.758Z,81.21
2018-08-13T09:16:21.746Z,80.92
2018-08-13T09:17:21.733Z,81.37
2018-08-13T09:18:21.720Z,81.37
2018-08-13T09:19:21.708Z,82.23
2018-08-13T09:20:21.697Z,82.72
2018-08-13T09:21:21.682Z,83.01
2018-08-13T09:22:21.672Z,83.55
2018-08-13T09:23:21.656Z,83.36
2018-08-13T09:24:21.644Z,83.36
2018-08-13T09:25:21.632Z,83.74
2018-08-13T09:26:21.621Z,84.28
2018-08-13T09:27:21.607Z,84.67
2018-08-13T09:28:21.594Z,84.86
2018-08-13T09:29:21.581Z,84.86
2018-08-13T09:30:21.568Z,84.86
2018-08-13T09:31:21.555Z,84.61
2018-08-13T09:32:21.541Z,84.52
2018-08-13T09:33:21.528Z,84.52
2018-08-13T09:34:21.515Z,83.69
2018-08-13T09:35:21.501Z,83.74
2018-08-13T09:36:21.494Z,84.80
2018-08-13T09:37:21.476Z,84.95
2018-08-13T09:38:21.462Z,85.39
2018-08-13T09:39:21.449Z,85.15
2018-08-13T09:40:21.437Z,85.83
2018-08-13T09:41:21.426Z,86.69
2018-08-13T09:42:21.412Z,86.69
2018-08-13T09:43:21.399Z,86.79
2018-08-13T09:44:21.387Z,86.85
2018-08-13T09:45:21.372Z,86.99
2018-08-13T09:46:21.357Z,86.51
2018-08-13T09:47:21.343Z,86.11
2018-08-13T09:48:21.335Z,86.69
2018-08-13T09:49:21.320Z,86.21
2018-08-13T09:50:21.301Z,86.31
2018-08-13T09:51:21.292Z,85.63
2018-08-13T09:52:21.275Z,85.63
2018-08-13T09:53:21.263Z,86.41
2018-08-13T09:54:21.248Z,86.75
2018-08-13T09:55:21.237Z,87.33
2018-08-13T09:56:21.221Z,87.13
2018-08-13T09:57:21.209Z,87.23
2018-08-13T09:58:21.193Z,87.23
2018-08-13T09:59:21.181Z,87.33
2018-08-13T10:00:21.212Z,87.62
2018-08-13T10:01:21.154Z,88.59
2018-08-13T10:02:21.140Z,88.87
2018-08-13T10:03:21.125Z,87.43
2018-08-13T10:04:21.864Z,87.23
2018-08-13T10:05:21.099Z,88.01
2018-08-13T10:06:21.084Z,87.76
2018-08-13T10:07:21.071Z,87.37
2018-08-13T10:08:21.057Z,86.89
2018-08-13T10:09:21.081Z,86.60
2018-08-13T10:10:21.032Z,86.51
2018-08-13T10:11:21.016Z,85.53
2018-08-13T10:12:21.003Z,85.15
2018-08-13T10:13:20.989Z,85.35
2018-08-13T10:14:20.974Z,85.59
2018-08-13T10:15:20.962Z,86.51
2018-08-13T10:16:20.949Z,86.69
2018-08-13T10:17:20.935Z,86.11
2018-08-13T10:18:20.921Z,86.60
2018-08-13T10:19:20.907Z,86.69
2018-08-13T10:20:20.894Z,85.05
2018-08-13T10:21:20.881Z,85.53
2018-08-13T10:22:20.867Z,86.31
2018-08-13T10:23:20.853Z,85.83
2018-08-13T10:24:20.840Z,86.31
2018-08-13T10:25:20.826Z,85.83
2018-08-13T10:26:20.817Z,85.73
2018-08-13T10:27:20.799Z,86.41
2018-08-13T10:28:20.786Z,85.69
2018-08-13T10:29:20.773Z,86.27
2018-08-13T10:30:20.760Z,86.60
2018-08-13T10:31:20.746Z,86.51
2018-08-13T10:32:20.733Z,86.51
2018-08-13T10:33:20.720Z,86.60
2018-08-13T10:34:20.705Z,85.53
2018-08-13T10:35:20.692Z,86.31
2018-08-13T10:36:20.679Z,86.41
2018-08-13T10:37:20.673Z,85.63
2018-08-13T10:38:20.651Z,85.25
2018-08-13T10:39:20.639Z,85.30
2018-08-13T10:40:20.625Z,85.30
2018-08-13T10:41:22.866Z,85.30
2018-08-13T10:42:20.598Z,85.69
2018-08-13T10:43:20.585Z,85.88
2018-08-13T10:44:20.571Z,85.63
2018-08-13T10:45:20.560Z,85.15
2018-08-13T10:46:20.545Z,85.35
2018-08-13T10:47:20.531Z,85.30
2018-08-13T10:48:20.519Z,85.98
2018-08-13T10:49:20.506Z,86.07
2018-08-13T10:50:20.491Z,86.42
2018-08-13T10:51:20.477Z,87.29
2018-08-13T10:52:20.466Z,87.77
2018-08-13T10:53:20.450Z,87.09
2018-08-13T10:54:20.435Z,87.77
2018-08-13T10:55:20.421Z,87.96
2018-08-13T10:56:20.408Z,88.06
2018-08-13T10:57:20.394Z,87.67
2018-08-13T10:58:21.129Z,88.06
2018-08-13T10:59:20.364Z,88.15
2018-08-13T11:00:20.350Z,88.06
2018-08-13T11:01:20.340Z,88.45
2018-08-13T11:02:20.322Z,89.03
2018-08-13T11:03:20.308Z,88.45
2018-08-13T11:04:20.293Z,87.87
2018-08-13T11:05:20.284Z,88.25
2018-08-13T11:06:20.264Z,88.73
2018-08-13T11:07:20.250Z,88.64
2018-08-13T11:08:20.236Z,89.70
2018-08-13T11:09:20.223Z,89.41
2018-08-13T11:10:20.216Z,90.14
2018-08-13T11:11:20.196Z,89.95
2018-08-13T11:12:20.182Z,90.91
2018-08-13T11:13:20.207Z,90.62
2018-08-13T11:14:20.149Z,91.11
2018-08-13T11:15:20.135Z,91.01
2018-08-13T11:16:20.120Z,91.11
2018-08-13T11:17:20.106Z,90.81
2018-08-13T11:18:20.092Z,92.16
2018-08-13T11:19:20.077Z,92.07
2018-08-13T11:20:20.063Z,93.37
2018-08-13T11:21:20.048Z,94.24
2018-08-13T11:22:20.033Z,94.39
2018-08-13T11:23:20.018Z,94.92
2018-08-13T11:24:20.006Z,93.62
2018-08-13T11:25:23.829Z,92.75
2018-08-13T11:26:19.974Z,92.08
2018-08-13T11:27:19.961Z,93.33
2018-08-13T11:28:19.945Z,93.09
2018-08-13T11:29:19.940Z,92.32
2018-08-13T11:30:19.922Z,89.43
2018-08-13T11:31:22.157Z,92.61
2018-08-13T11:32:19.887Z,91.16
2018-08-13T11:33:19.871Z,89.62
2018-08-13T11:34:19.857Z,88.65
2018-08-13T11:35:19.841Z,89.72
2018-08-13T11:36:19.826Z,88.85
2018-08-13T11:37:20.562Z,85.77
2018-08-13T11:38:19.795Z,88.27
2018-08-13T11:39:19.786Z,89.33
2018-08-13T11:40:19.765Z,88.70
2018-08-13T11:41:19.754Z,90.34
2018-08-13T11:42:19.735Z,90.68
2018-08-13T11:43:19.721Z,91.55
2018-08-13T11:44:19.706Z,92.32
2018-08-13T11:45:19.692Z,90.78
2018-08-13T11:46:19.679Z,88.99
2018-08-13T11:47:19.663Z,88.02
2018-08-13T11:48:19.649Z,88.84
2018-08-13T11:49:19.634Z,88.79
2018-08-13T11:50:19.620Z,91.01
2018-08-13T11:51:19.604Z,90.28
2018-08-13T11:52:19.596Z,89.31
2018-08-13T11:53:19.576Z,92.45
2018-08-13T11:54:19.564Z,91.49
2018-08-13T11:55:19.547Z,90.47
2018-08-13T11:56:19.582Z,91.53
2018-08-13T11:57:19.519Z,91.53
2018-08-13T11:58:19.506Z,90.66
2018-08-13T11:59:19.492Z,91.77
2018-08-13T12:00:19.479Z,91.96
2018-08-13T12:01:19.466Z,91.28
2018-08-13T12:02:19.451Z,91.82
2018-08-13T12:03:19.439Z,89.69
2018-08-13T12:04:19.433Z,91.56
2018-08-13T12:05:19.414Z,91.18
2018-08-13T12:06:19.403Z,90.99
2018-08-13T12:07:19.388Z,88.53
2018-08-13T12:08:19.421Z,89.40
2018-08-13T12:09:19.364Z,90.27
2018-08-13T12:10:19.399Z,91.14
2018-08-13T12:11:19.338Z,90.70
2018-08-13T12:12:19.329Z,90.51
2018-08-13T12:13:19.314Z,90.66
2018-08-13T12:14:19.305Z,90.08
2018-08-13T12:15:19.292Z,90.66
2018-08-13T12:16:19.277Z,91.38
2018-08-13T12:17:19.264Z,89.21
2018-08-13T12:18:19.251Z,90.08
2018-08-13T12:19:19.239Z,90.47
2018-08-13T12:20:19.227Z,90.33
2018-08-13T12:21:19.216Z,91.19
2018-08-13T12:22:19.203Z,92.21
2018-08-13T12:23:19.190Z,90.75
2018-08-13T12:24:19.179Z,90.66
2018-08-13T12:25:19.166Z,90.66
2018-08-13T12:26:19.162Z,90.08
2018-08-13T12:27:19.141Z,90.17
2018-08-13T12:28:19.131Z,90.27
2018-08-13T12:29:19.119Z,89.31
2018-08-13T12:30:20.606Z,89.25
2018-08-13T12:31:19.092Z,90.36
2018-08-13T12:32:19.081Z,88.19
2018-08-13T12:33:19.069Z,88.67
2018-08-13T12:34:19.059Z,88.57
2018-08-13T12:35:19.046Z,89.93
2018-08-13T12:36:22.036Z,90.12
2018-08-13T12:37:19.020Z,91.04
2018-08-13T12:38:19.009Z,89.35
2018-08-13T12:39:18.998Z,88.96
2018-08-13T12:40:18.984Z,89.15
2018-08-13T12:41:18.973Z,89.54
2018-08-13T12:42:19.711Z,89.20
2018-08-13T12:43:18.948Z,89.83
2018-08-13T12:44:18.937Z,88.09
2018-08-13T12:45:18.924Z,88.42
2018-08-13T12:46:18.912Z,88.03
2018-08-13T12:47:18.901Z,87.16
2018-08-13T12:48:18.891Z,87.16
2018-08-13T12:49:18.879Z,87.99
2018-08-13T12:50:18.865Z,87.84
2018-08-13T12:51:18.854Z,87.16
2018-08-13T12:52:18.842Z,87.45